Murphy, North Carolina
Current Conditions -  °F | °C
As of 5:15 PM on Thursday 23 Oct 2014 (Local Time) from KRHP Reporting Station
Clear Clear  
Wind Chill: 64°   Ceiling: Unl
Heat Index: 64°   Visibility: 10mi
Dew Point: 47°   Wind: 5mph
Humidity: 53%   Direction: 220°SW
Pressure: 30.04"   Gusts: NA
Location:  35.09°N, 84.03°W
Report Text: KRHP 232115Z AUTO 22004KT 10SM CLR 18/08 A3004 RMK AO2 T01780082
Loading
Personal Weather Stations






























Interactive Weather Map
Tropical Storm Tracking
New forecast layout! Learn more

10-Day Weather Forecast

Advertisements
Track Severe Weather on mobile